EmailTwitter


Surface observations / United Kingdom / EGLL (03772)

Regions: Quebec | Canada | USA | Europe | France | UK | Elsewhere
Station
Display
Info & Location for EGLL (03772) | Help decoding METAR

Weather Conditions observed on 2020/09/28 at 12:50 UTC at LONDON/HEATHROW, UK (EGLL)

Temperature: 16.0 Celsius.

Dewpoint: 9.0 Celsius.

Relative Humidity: 63%

Winds: Northwest at 13 km/h or 7 knots.

Mean Sea level Pressure: 101.30 kilopascals.

Horizontal visibility: 6.21 statute miles or 9.94 kilometers.

Coded METAR:

EGLL 281250Z AUTO 31007KT 280V340 9999 NCD 16/09 Q1013 NOSIG=